Portada
METAR-TAF:

METAR-TAF

Aeroports :

Bangalore, Índia

latitud: 12-57-00N, longitud: 077-40-06E, altitud: 888 m

Observació

L'informe es va fer fa 48 minuts, a les 10:30 UTC
Vent 4 kt del Nord-Est
Temperatura 26°C
Humitat 65%
Pressió 1015 hPa
Visibilitat: 3000 m
Núvols disperses a una alçada de 800 ft
Cel ennuvolat a una alçada de 1200 ft
calitja

METAR: VOBG 211030Z 05004KT 3000 HZ SCT008 BKN012 26/19 Q1015 NOSIG

Hora: 16:48 (11:18 UTC)

Pronòstic

L'informe es va fer fa 3 hores i 18 minuts, a les 08:00 UTC
Pronòstic vàlid del 21 a les 09 UTC al 21 a les 18 UTC
Vent 10 kt del Est
Visibilitat: 6000 m
Núvols disperses a una alçada de 1200 ft
Temporalment
l' 21 a les 12 UTC al 21 a les 15 UTC
Núvols disperses a una alçada de 1200 ft
Núvols disperses a una alçada de 1800 ft
Escasses núvols a una alçada de 2500 ft, Cumulonimbus.

TAF: VOBG 210800Z 2109/2118 09010KT 6000 SCT012 TEMPO 2112/2115 SCT012 SCT018 FEW025CB

Observacions i pronòstics meteorològics de més de 4000 aeroports (METAR i TAF).

Les estacions disponibles són els punts grocs i vermells al mapa.

Posi el ratolí al punt desitjat per veure el nom de l'estació.

Feu clic per veure les observacions i els pronòstics meteorològics.

Per canviar el mapa: feu clic els botons verds amb una creu de color negre per apropar; al botó verd amb un guió per allunyar la imatge; o en les fletxes verdes per a mapes adjacents.


METAR-TAF: